Time;durP1;ratioP1;P1;durP2;ratioP2;P2;SDS_P1;SDS_P2;PMS_P1;PMS_P2;Temp;Humidity;BMP_temperature;BMP_pressure;BME280_temperature;BME280_humidity;BME280_pressure;Samples;Min_cycle;Max_cycle;Signal;HPM_P1;HPM_P2
2022/12/24 00:01:56;;;;;;;60.72;33.33;;;;;;;4.08;nan;100201.28;5084343;28;20497;-68
2022/12/24 00:04:21;;;;;;;80.35;43.00;;;;;;;4.31;nan;100231.53;5078207;28;20052;-67
2022/12/24 00:06:47;;;;;;;68.50;39.03;;;;;;;4.33;nan;100232.16;5089931;28;20052;-68
2022/12/24 00:09:12;;;;;;;69.32;37.65;;;;;;;4.36;nan;100226.59;5087537;28;20036;-67
2022/12/24 00:11:37;;;;;;;64.85;34.72;;;;;;;4.28;nan;100211.84;5084736;28;20032;-68
2022/12/24 00:14:03;;;;;;;59.30;33.30;;;;;;;4.32;nan;100218.31;5087761;28;20077;-68
2022/12/24 00:16:28;;;;;;;62.78;32.58;;;;;;;4.38;nan;100237.59;5085804;28;20066;-67
2022/12/24 00:18:54;;;;;;;58.67;30.60;;;;;;;4.11;nan;100179.25;5087483;28;20032;-68
2022/12/24 00:21:19;;;;;;;58.15;30.52;;;;;;;4.43;nan;100222.19;5082110;28;20073;-67
2022/12/24 00:23:45;;;;;;;62.58;32.70;;;;;;;4.13;nan;100152.00;5088218;28;20045;-67
2022/12/24 00:26:12;;;;;;;63.10;32.08;;;;;;;4.42;nan;100192.72;5087956;28;20079;-66
2022/12/24 00:28:37;;;;;;;58.33;30.77;;;;;;;4.50;nan;100196.19;5084140;28;20031;-72
2022/12/24 00:31:21;;;;;;;55.20;30.23;;;;;;;4.61;nan;100209.50;5081876;28;20020;-69
2022/12/24 00:33:46;;;;;;;62.35;29.98;;;;;;;4.63;nan;100204.91;5084989;28;20020;-69
2022/12/24 00:36:12;;;;;;;50.13;28.20;;;;;;;4.65;nan;100195.09;5068288;28;20486;-69
2022/12/24 00:38:38;;;;;;;53.78;27.15;;;;;;;4.68;nan;100191.28;5064261;28;20020;-70
2022/12/24 00:41:22;;;;;;;50.42;26.35;;;;;;;4.42;nan;100145.00;5086168;28;20032;-70
2022/12/24 00:43:53;;;;;;;45.55;25.85;;;;;;;4.64;nan;100171.81;5091018;28;20023;-70
2022/12/24 00:46:18;;;;;;;47.72;25.08;;;;;;;4.67;nan;100179.25;5071773;28;20032;-70
2022/12/24 00:48:43;;;;;;;46.28;24.60;;;;;;;4.74;nan;100185.31;5081505;28;20580;-69
2022/12/24 00:51:09;;;;;;;43.88;24.27;;;;;;;4.78;nan;100199.56;5064505;28;20112;-70
2022/12/24 00:53:34;;;;;;;46.90;24.60;;;;;;;4.77;nan;100186.75;5082102;28;20103;-71
2022/12/24 00:55:59;;;;;;;48.78;24.88;;;;;;;4.75;nan;100184.31;5080630;28;20099;-70
2022/12/24 00:58:25;;;;;;;43.55;24.50;;;;;;;4.71;nan;100175.25;5085678;28;20031;-71
2022/12/24 01:00:50;;;;;;;41.97;23.77;;;;;;;4.84;nan;100196.22;5081983;28;20537;-71
2022/12/24 01:03:15;;;;;;;44.60;24.13;;;;;;;4.86;nan;100198.59;5083491;28;20056;-69
2022/12/24 01:05:41;;;;;;;45.47;23.83;;;;;;;4.87;nan;100197.63;5078287;28;20032;-70
2022/12/24 01:08:06;;;;;;;43.08;24.10;;;;;;;4.92;nan;100210.09;5054190;28;20032;-70
2022/12/24 01:10:32;;;;;;;46.13;23.45;;;;;;;4.92;nan;100223.16;5082757;28;20027;-70
2022/12/24 01:13:01;;;;;;;41.42;23.70;;;;;;;4.90;nan;100205.88;5070407;28;20028;-70
2022/12/24 01:15:27;;;;;;;42.45;22.30;;;;;;;4.93;nan;100202.06;5084934;28;20021;-70
2022/12/24 01:17:52;;;;;;;44.83;24.73;;;;;;;4.91;nan;100204.09;5087768;28;20515;-69
2022/12/24 01:20:18;;;;;;;39.60;23.27;;;;;;;4.88;nan;100197.44;5081956;28;20063;-70
2022/12/24 01:22:44;;;;;;;43.85;24.52;;;;;;;4.79;nan;100184.72;5084632;28;20016;-70
2022/12/24 01:25:09;;;;;;;43.00;23.88;;;;;;;4.82;nan;100198.22;5082127;28;20483;-70
2022/12/24 01:27:35;;;;;;;40.55;22.85;;;;;;;4.83;nan;100197.19;5084512;28;20024;-69
2022/12/24 01:30:00;;;;;;;42.00;23.92;;;;;;;4.82;nan;100202.63;5089935;28;20516;-71
2022/12/24 01:32:25;;;;;;;43.10;23.98;;;;;;;4.62;nan;100169.41;5086468;28;20047;-70
2022/12/24 01:34:51;;;;;;;42.35;23.90;;;;;;;4.75;nan;100192.16;5087710;28;20035;-70
2022/12/24 01:37:16;;;;;;;41.65;23.30;;;;;;;4.60;nan;100173.19;5087431;28;20218;-69
2022/12/24 01:39:41;;;;;;;44.65;24.10;;;;;;;4.76;nan;100201.56;5084722;28;20024;-70
2022/12/24 01:45:25;;;;;;;;;;;;;;;4.90;nan;100216.31;5087812;28;20440;-70
2022/12/24 01:47:50;;;;;;;40.58;22.42;;;;;;;4.88;nan;100197.44;5072330;28;19912;-71
2022/12/24 01:50:17;;;;;;;39.65;23.33;;;;;;;4.93;nan;100196.03;5084439;28;20035;-70
2022/12/24 01:52:43;;;;;;;41.30;22.58;;;;;;;4.88;nan;100196.63;5085026;28;20032;-71
2022/12/24 01:55:14;;;;;;;43.33;24.10;;;;;;;4.85;nan;100194.41;5088413;28;20042;-70
2022/12/24 01:57:48;;;;;;;40.47;23.08;;;;;;;4.83;nan;100191.97;5088267;28;20027;-71
2022/12/24 02:00:15;;;;;;;41.22;23.77;;;;;;;4.81;nan;100194.00;5079430;28;20032;-69
2022/12/24 02:02:45;;;;;;;42.03;24.10;;;;;;;4.79;nan;100192.56;5068824;28;20063;-69
2022/12/24 02:05:20;;;;;;;40.33;23.63;;;;;;;4.84;nan;100204.03;5075716;28;20119;-69
2022/12/24 02:07:46;;;;;;;43.95;23.75;;;;;;;4.83;nan;100212.03;5059779;28;20028;-69
2022/12/24 02:10:12;;;;;;;43.25;24.17;;;;;;;4.72;nan;100204.75;5082223;28;20036;-70
2022/12/24 02:12:41;;;;;;;40.83;23.83;;;;;;;4.77;nan;100211.03;5080281;28;20111;-70
2022/12/24 02:15:10;;;;;;;41.67;23.90;;;;;;;4.85;nan;100213.47;5083471;28;20416;-70
2022/12/24 02:17:47;;;;;;;44.47;24.00;;;;;;;4.84;nan;100206.66;5080530;28;20040;-70
2022/12/24 02:20:43;;;;;;;44.78;23.55;;;;;;;4.79;nan;100193.38;5086982;28;20481;-69
2022/12/24 02:23:28;;;;;;;41.80;23.02;;;;;;;4.44;nan;100149.03;5003557;28;20105;-71
2022/12/24 02:26:15;;;;;;;39.88;22.67;;;;;;;4.76;nan;100214.59;4999358;28;20451;-69
2022/12/24 02:28:56;;;;;;;43.25;23.60;;;;;;;4.78;nan;100222.25;5002526;28;20124;-70
2022/12/24 02:31:51;;;;;;;41.55;23.40;;;;;;;4.79;nan;100223.84;4987032;28;20030;-70
2022/12/24 02:34:22;;;;;;;50.63;24.58;;;;;;;4.81;nan;100211.44;5002789;28;20065;-70
2022/12/24 02:36:56;;;;;;;42.47;22.95;;;;;;;4.78;nan;100196.97;5005784;28;20030;-70
2022/12/24 02:39:46;;;;;;;39.92;23.17;;;;;;;4.80;nan;100186.34;4981975;28;20120;-70
2022/12/24 02:42:16;;;;;;;41.22;22.63;;;;;;;4.76;nan;100174.69;4996783;28;20062;-70
2022/12/24 02:44:49;;;;;;;44.22;23.73;;;;;;;4.91;nan;100196.25;5003881;28;20037;-68
2022/12/24 02:47:17;;;;;;;46.03;23.92;;;;;;;4.81;nan;100178.34;5001075;28;20921;-70
2022/12/24 02:49:44;;;;;;;42.42;23.58;;;;;;;4.96;nan;100203.50;4985845;28;20088;-70
2022/12/24 02:52:46;;;;;;;47.58;25.50;;;;;;;4.90;nan;100195.44;5004997;28;20034;-70
2022/12/24 02:55:45;;;;;;;42.53;23.15;;;;;;;5.01;nan;100203.72;4949202;28;20324;-70
2022/12/24 02:58:22;;;;;;;45.08;23.95;;;;;;;5.02;nan;100207.94;4945893;28;20039;-70
2022/12/24 03:00:47;;;;;;;42.88;24.17;;;;;;;5.04;nan;100222.41;4984350;28;20050;-70
2022/12/24 03:03:30;;;;;;;43.15;23.63;;;;;;;4.96;nan;100206.91;5005343;28;20593;-70
2022/12/24 03:06:28;;;;;;;40.35;22.67;;;;;;;5.03;nan;100212.97;4996858;28;20072;-70
2022/12/24 03:09:25;;;;;;;40.85;22.75;;;;;;;5.06;nan;100222.22;4987002;28;20030;-69
2022/12/24 03:11:58;;;;;;;41.88;22.52;;;;;;;5.00;nan;100212.53;4998730;28;20037;-68
2022/12/24 03:14:26;;;;;;;42.95;23.70;;;;;;;4.96;nan;100204.31;5001822;28;20031;-68
2022/12/24 03:16:51;;;;;;;48.33;24.58;;;;;;;4.96;nan;100206.91;5004534;28;20136;-70
2022/12/24 03:19:18;;;;;;;44.75;23.75;;;;;;;5.05;nan;100221.44;5003191;28;20041;-69
2022/12/24 03:21:46;;;;;;;45.67;25.55;;;;;;;5.06;nan;100204.75;4988271;28;20033;-68
2022/12/24 03:24:11;;;;;;;46.40;25.15;;;;;;;5.14;nan;100211.63;4995698;28;20029;-70
2022/12/24 03:26:38;;;;;;;44.75;25.75;;;;;;;5.19;nan;100213.66;5001642;28;20030;-70
2022/12/24 03:29:06;;;;;;;45.05;25.27;;;;;;;5.22;nan;100219.31;5034890;28;20067;-70
2022/12/24 03:31:40;;;;;;;45.00;25.42;;;;;;;5.24;nan;100212.09;5081009;28;20112;-69
2022/12/24 03:34:06;;;;;;;49.63;26.45;;;;;;;5.28;nan;100215.91;5081810;28;20059;-69
2022/12/24 03:36:31;;;;;;;44.53;24.30;;;;;;;5.15;nan;100191.53;5088095;28;20052;-70
2022/12/24 03:38:56;;;;;;;49.17;24.83;;;;;;;5.32;nan;100222.34;5087582;28;20362;-69
2022/12/24 03:41:21;;;;;;;48.42;24.30;;;;;;;5.33;nan;100197.03;5085588;28;20107;-70
2022/12/24 03:43:47;;;;;;;52.17;24.92;;;;;;;5.45;nan;100212.94;5082582;28;20024;-70
2022/12/24 03:46:12;;;;;;;47.17;23.88;;;;;;;5.42;nan;100201.09;5080291;28;20031;-68
2022/12/24 03:48:37;;;;;;;47.00;25.70;;;;;;;5.51;nan;100222.63;5064287;28;20077;-70
2022/12/24 03:51:03;;;;;;;42.83;22.90;;;;;;;5.56;nan;100230.69;5066100;28;20032;-70
2022/12/24 03:53:28;;;;;;;42.85;25.05;;;;;;;5.56;nan;100220.22;5067004;28;20986;-71
2022/12/24 03:55:54;;;;;;;45.20;24.60;;;;;;;5.60;nan;100229.25;5054128;28;20062;-69
2022/12/24 03:58:19;;;;;;;42.60;22.70;;;;;;;5.60;nan;100228.47;5081459;28;20485;-69
2022/12/24 04:00:45;;;;;;;46.65;24.65;;;;;;;5.54;nan;100209.16;5086947;28;20054;-69
2022/12/24 04:03:10;;;;;;;49.25;25.52;;;;;;;5.54;nan;100211.78;5078316;28;20144;-69
2022/12/24 04:05:35;;;;;;;45.95;25.20;;;;;;;;;;5087275;28;20035;-69
2022/12/24 04:08:00;;;;;;;41.37;23.93;;;;;;;5.66;nan;100222.47;5078747;28;20024;-69
2022/12/24 04:10:26;;;;;;;44.67;23.67;;;;;;;5.71;nan;100223.47;5069278;28;20709;-69
2022/12/24 04:12:51;;;;;;;45.55;23.95;;;;;;;5.76;nan;100215.06;5066868;28;20036;-69
2022/12/24 04:15:17;;;;;;;43.97;23.90;;;;;;;5.79;nan;100216.47;5082020;28;20443;-69
2022/12/24 04:17:42;;;;;;;42.65;23.65;;;;;;;5.72;nan;100206.00;5082938;28;20035;-69
2022/12/24 04:20:08;;;;;;;45.28;24.15;;;;;;;5.78;nan;100209.63;5065055;28;20047;-69
2022/12/24 04:22:33;;;;;;;47.88;23.25;;;;;;;5.80;nan;100212.84;5083534;28;20016;-69
2022/12/24 04:24:58;;;;;;;46.53;24.65;;;;;;;5.76;nan;100204.59;5082536;28;20066;-69
2022/12/24 04:27:24;;;;;;;47.97;25.65;;;;;;;5.86;nan;100220.69;5082402;28;20620;-69
2022/12/24 04:29:49;;;;;;;44.60;24.42;;;;;;;5.82;nan;100189.94;5083315;28;21087;-69
2022/12/24 04:32:15;;;;;;;42.95;23.08;;;;;;;5.84;nan;100183.53;5084796;28;20042;-69
2022/12/24 04:34:40;;;;;;;45.38;24.23;;;;;;;5.64;nan;100159.16;5073200;28;20286;-69
2022/12/24 04:37:05;;;;;;;39.97;21.90;;;;;;;5.86;nan;100191.94;5089053;28;20115;-70
2022/12/24 04:39:31;;;;;;;40.03;22.27;;;;;;;5.90;nan;100187.94;5089011;28;20027;-69
2022/12/24 04:41:56;;;;;;;44.55;26.15;;;;;;;5.87;nan;100195.38;5088084;28;20036;-68
2022/12/24 04:44:22;;;;;;;48.60;30.00;;;;;;;5.89;nan;100191.56;5085636;28;20566;-69
2022/12/24 04:46:47;;;;;;;42.00;23.65;;;;;;;5.87;nan;100190.16;5085358;28;20040;-70
2022/12/24 04:49:12;;;;;;;38.05;22.00;;;;;;;5.95;nan;100211.69;5089765;28;20028;-70
2022/12/24 04:51:38;;;;;;;43.50;23.20;;;;;;;5.64;nan;100148.72;5085675;28;20134;-70
2022/12/24 04:54:03;;;;;;;37.97;22.25;;;;;;;5.95;nan;100197.81;5085867;28;20021;-70
2022/12/24 04:56:31;;;;;;;36.72;21.13;;;;;;;6.01;nan;100186.59;5071410;28;20063;-70
2022/12/24 04:58:58;;;;;;;38.20;20.92;;;;;;;5.93;nan;100184.91;5079892;28;20036;-70
2022/12/24 05:01:26;;;;;;;38.67;21.10;;;;;;;5.95;nan;100174.31;5090401;28;20062;-70
2022/12/24 05:03:52;;;;;;;44.15;22.15;;;;;;;6.06;nan;100192.03;5083525;28;20070;-70
2022/12/24 05:06:21;;;;;;;40.00;21.23;;;;;;;6.01;nan;100178.75;5088068;28;20506;-69
2022/12/24 05:08:46;;;;;;;41.03;21.80;;;;;;;6.09;nan;100186.38;5085726;28;20027;-70
2022/12/24 05:11:15;;;;;;;38.55;21.85;;;;;;;6.11;nan;100191.41;5084799;28;20277;-70
2022/12/24 05:13:44;;;;;;;38.33;21.13;;;;;;;5.99;nan;100185.97;5087011;28;20024;-70
2022/12/24 05:16:10;;;;;;;41.55;21.48;;;;;;;6.08;nan;100205.69;5089150;28;20050;-71
2022/12/24 05:18:36;;;;;;;42.08;21.77;;;;;;;6.02;nan;100201.25;5067205;28;20024;-70
2022/12/24 05:21:02;;;;;;;37.22;21.63;;;;;;;6.14;nan;100217.16;5089542;28;20036;-70
2022/12/24 05:26:22;;;;;;;39.25;21.33;;;;;;;6.09;nan;100199.44;5085302;28;20100;-70
2022/12/24 05:28:53;;;;;;;40.78;22.73;;;;;;;5.98;nan;100192.19;5083430;28;20066;-69
2022/12/24 05:31:20;;;;;;;40.78;22.38;;;;;;;6.00;nan;100194.63;5066535;28;20114;-67
2022/12/24 05:33:46;;;;;;;40.25;23.02;;;;;;;6.02;nan;100190.00;5073851;28;20120;-67
2022/12/24 05:36:11;;;;;;;45.35;23.50;;;;;;;6.20;nan;100215.53;5085556;28;20036;-67
2022/12/24 05:38:37;;;;;;;40.97;22.02;;;;;;;6.07;nan;100192.81;5085674;28;20096;-67
2022/12/24 05:41:03;;;;;;;39.42;21.80;;;;;;;6.17;nan;100208.91;5069211;28;20491;-67
2022/12/24 05:43:28;;;;;;;39.35;22.63;;;;;;;6.13;nan;100203.28;5077446;28;20394;-66
2022/12/24 05:46:01;;;;;;;46.17;24.98;;;;;;;6.14;nan;100198.84;5063791;28;20166;-67
2022/12/24 05:48:26;;;;;;;39.65;22.95;;;;;;;6.23;nan;100220.38;5043270;28;20030;-67
2022/12/24 05:50:53;;;;;;;40.63;22.92;;;;;;;6.27;nan;100232.03;5080335;28;20036;-67
2022/12/24 05:53:18;;;;;;;37.30;21.80;;;;;;;6.20;nan;100218.16;5080185;28;20057;-67
2022/12/24 05:55:44;;;;;;;40.10;21.70;;;;;;;6.29;nan;100235.25;5079013;28;20059;-67
2022/12/24 05:58:09;;;;;;;39.70;22.08;;;;;;;6.25;nan;100223.59;5064255;28;20036;-67
2022/12/24 06:00:35;;;;;;;40.35;22.75;;;;;;;6.29;nan;100225.59;5066942;28;20425;-67
2022/12/24 06:03:00;;;;;;;44.75;22.00;;;;;;;6.14;nan;100202.25;5081548;28;20065;-68
2022/12/24 06:05:27;;;;;;;45.70;22.13;;;;;;;6.22;nan;100219.56;5077338;28;20041;-69
2022/12/24 06:07:52;;;;;;;39.13;22.05;;;;;;;6.15;nan;100214.34;5061711;28;20500;-69
2022/12/24 06:10:18;;;;;;;39.20;21.88;;;;;;;6.26;nan;100228.63;5084277;28;20023;-69
2022/12/24 06:12:43;;;;;;;39.03;21.90;;;;;;;6.27;nan;100227.59;5081807;28;20074;-68
2022/12/24 06:15:09;;;;;;;43.13;23.42;;;;;;;6.28;nan;100229.22;5067026;28;20032;-67
2022/12/24 06:17:34;;;;;;;41.15;22.83;;;;;;;6.30;nan;100226.44;5081732;28;20020;-69
2022/12/24 06:20:00;;;;;;;41.10;22.83;;;;;;;6.17;nan;100201.06;5078177;28;20093;-70
2022/12/24 06:22:25;;;;;;;46.33;25.45;;;;;;;6.30;nan;100235.06;5087041;28;20370;-71
2022/12/24 06:24:51;;;;;;;40.92;22.77;;;;;;;6.25;nan;100224.41;5084248;28;20529;-70
2022/12/24 06:27:16;;;;;;;41.05;23.60;;;;;;;6.30;nan;100234.28;5075894;28;20032;-70
2022/12/24 06:29:41;;;;;;;48.65;25.20;;;;;;;6.37;nan;100245.53;5083619;28;20119;-68
2022/12/24 06:32:07;;;;;;;47.90;24.20;;;;;;;6.32;nan;100235.69;5064727;28;20036;-68
2022/12/24 06:34:32;;;;;;;42.88;23.85;;;;;;;6.29;nan;100222.97;5082502;28;20020;-69
2022/12/24 06:36:57;;;;;;;44.00;24.63;;;;;;;6.10;nan;100195.81;5084731;28;20474;-68
2022/12/24 06:39:23;;;;;;;46.30;25.60;;;;;;;6.37;nan;100246.34;5084827;28;20103;-69
2022/12/24 06:41:48;;;;;;;39.80;23.13;;;;;;;6.38;nan;100241.91;5084738;28;20037;-69
2022/12/24 06:44:13;;;;;;;42.60;24.70;;;;;;;6.46;nan;100253.97;5059966;28;20043;-68
2022/12/24 06:46:39;;;;;;;48.60;25.73;;;;;;;6.32;nan;100235.69;5085999;28;20024;-69
2022/12/24 06:49:04;;;;;;;50.33;26.63;;;;;;;6.45;nan;100261.03;5082904;28;20028;-71
2022/12/24 06:51:29;;;;;;;47.75;26.50;;;;;;;6.50;nan;100273.50;5083534;28;20028;-69
2022/12/24 06:53:55;;;;;;;48.33;27.42;;;;;;;6.49;nan;100261.41;5082328;28;20055;-68
2022/12/24 06:56:20;;;;;;;47.50;25.88;;;;;;;6.35;nan;100250.97;5066538;28;20111;-68
2022/12/24 06:58:47;;;;;;;43.28;24.95;;;;;;;6.50;nan;100273.50;5084167;28;20028;-70
2022/12/24 07:01:14;;;;;;;44.45;24.45;;;;;;;6.55;nan;100284.97;5087112;28;20088;-70
2022/12/24 07:03:40;;;;;;;44.20;24.25;;;;;;;6.51;nan;100281.16;5066065;28;20571;-66
2022/12/24 07:06:10;;;;;;;43.70;23.45;;;;;;;6.46;nan;100280.13;5084615;28;20085;-68
2022/12/24 07:08:35;;;;;;;40.03;23.83;;;;;;;6.47;nan;100282.56;5083772;28;20031;-68
2022/12/24 07:11:01;;;;;;;42.63;23.45;;;;;;;6.53;nan;100296.63;5086463;28;20036;-68
2022/12/24 07:13:28;;;;;;;41.95;23.35;;;;;;;6.56;nan;100298.84;5063956;28;20042;-67
2022/12/24 07:16:03;;;;;;;43.83;23.73;;;;;;;6.60;nan;100302.66;5083806;28;20032;-69
2022/12/24 07:18:29;;;;;;;43.50;24.25;;;;;;;6.48;nan;100281.53;5080632;28;20024;-69
2022/12/24 07:20:54;;;;;;;49.30;26.52;;;;;;;6.52;nan;100295.84;5079692;28;20031;-68
2022/12/24 07:23:20;;;;;;;45.50;25.17;;;;;;;6.50;nan;100291.81;5087198;28;20020;-70
2022/12/24 07:25:45;;;;;;;45.25;24.77;;;;;;;6.57;nan;100303.09;5065327;28;20021;-70
2022/12/24 07:28:11;;;;;;;44.78;25.15;;;;;;;6.58;nan;100312.53;5076804;28;20078;-70
2022/12/24 07:30:36;;;;;;;42.47;24.77;;;;;;;6.30;nan;100270.88;5075973;28;20052;-70
2022/12/24 07:33:02;;;;;;;45.63;25.52;;;;;;;6.62;nan;100333.88;5077874;28;20036;-69
2022/12/24 07:35:27;;;;;;;45.08;25.13;;;;;;;6.59;nan;100325.41;5074567;28;20083;-69
2022/12/24 07:37:53;;;;;;;47.53;24.27;;;;;;;6.59;nan;100322.81;5075202;28;20036;-68
2022/12/24 07:40:18;;;;;;;43.35;23.85;;;;;;;6.60;nan;100326.22;5081853;28;20621;-70
2022/12/24 07:42:44;;;;;;;46.97;25.27;;;;;;;6.57;nan;100326.63;5085014;28;20028;-69
2022/12/24 07:45:09;;;;;;;45.47;25.70;;;;;;;6.50;nan;100303.06;5081249;28;20034;-69
2022/12/24 07:47:35;;;;;;;49.08;25.65;;;;;;;6.58;nan;100312.53;5078862;28;20035;-69
2022/12/24 07:50:01;;;;;;;48.15;25.63;;;;;;;6.57;nan;100311.72;5073142;28;20482;-69
2022/12/24 07:52:27;;;;;;;44.58;24.90;;;;;;;6.62;nan;100312.94;5078098;28;20449;-69
2022/12/24 07:54:52;;;;;;;45.85;25.15;;;;;;;6.58;nan;100321.22;5074356;28;20052;-69
2022/12/24 07:57:17;;;;;;;48.60;25.33;;;;;;;6.43;nan;100299.66;5072448;28;20027;-69
2022/12/24 07:59:43;;;;;;;46.92;24.60;;;;;;;6.55;nan;100320.78;5073595;28;20770;-69
2022/12/24 08:02:10;;;;;;;47.78;24.30;;;;;;;6.57;nan;100335.28;5078394;28;20031;-68
2022/12/24 08:04:36;;;;;;;48.83;25.92;;;;;;;6.57;nan;100326.63;5087769;28;20050;-69
2022/12/24 08:07:03;;;;;;;47.50;25.95;;;;;;;6.56;nan;100325.81;5086833;28;20044;-68
2022/12/24 08:09:31;;;;;;;46.03;25.20;;;;;;;6.52;nan;100326.44;5085353;28;20020;-68
2022/12/24 08:11:56;;;;;;;47.67;25.60;;;;;;;6.52;nan;100324.63;5067771;28;20060;-68
2022/12/24 08:14:21;;;;;;;45.63;24.67;;;;;;;6.53;nan;100323.59;5089710;28;20078;-68
2022/12/24 08:16:47;;;;;;;49.63;26.80;;;;;;;6.51;nan;100327.41;5082325;28;20084;-67
2022/12/24 08:19:12;;;;;;;46.92;25.13;;;;;;;6.53;nan;100336.69;5080638;28;20029;-68
2022/12/24 08:21:37;;;;;;;53.03;26.88;;;;;;;6.55;nan;100337.28;5082434;28;20070;-68
2022/12/24 08:24:03;;;;;;;49.15;27.40;;;;;;;6.56;nan;100328.44;5083304;28;20024;-68
2022/12/24 08:26:28;;;;;;;48.40;26.27;;;;;;;6.47;nan;100341.91;5084976;28;20019;-67
2022/12/24 08:28:54;;;;;;;52.47;27.15;;;;;;;6.45;nan;100346.53;5090299;28;20735;-68
2022/12/24 08:31:19;;;;;;;49.97;27.38;;;;;;;6.35;nan;100331.22;5063633;28;20027;-68
2022/12/24 08:33:44;;;;;;;52.40;28.38;;;;;;;6.59;nan;100372.50;5081106;28;20030;-67
2022/12/24 08:36:10;;;;;;;48.72;26.40;;;;;;;6.52;nan;100355.19;5065451;28;20035;-68
2022/12/24 08:38:35;;;;;;;49.03;27.20;;;;;;;6.63;nan;100366.88;5082658;28;20040;-68
2022/12/24 08:41:00;;;;;;;53.78;27.85;;;;;;;6.62;nan;100360.84;5083432;28;20028;-68
2022/12/24 08:43:26;;;;;;;56.17;29.58;;;;;;;6.56;nan;100345.94;5086042;28;20054;-68
2022/12/24 08:45:52;;;;;;;53.92;29.25;;;;;;;6.69;nan;100355.63;5082551;28;20028;-68
2022/12/24 08:48:17;;;;;;;54.83;28.83;;;;;;;6.73;nan;100370.72;5082810;28;20055;-69
2022/12/24 08:50:43;;;;;;;48.33;27.52;;;;;;;6.75;nan;100365.28;5081948;28;20462;-68
2022/12/24 08:53:09;;;;;;;56.15;29.83;;;;;;;6.64;nan;100345.75;5063868;28;20133;-69
2022/12/24 08:55:35;;;;;;;50.50;28.77;;;;;;;6.80;nan;100373.34;5065644;28;20024;-69
2022/12/24 08:58:00;;;;;;;52.58;29.65;;;;;;;6.81;nan;100385.41;5064024;28;20081;-68
2022/12/24 09:00:26;;;;;;;55.20;30.15;;;;;;;6.82;nan;100380.00;5085022;28;20095;-69
2022/12/24 09:02:51;;;;;;;54.22;29.55;;;;;;;6.76;nan;100366.91;5080443;28;20119;-69
2022/12/24 09:05:17;;;;;;;65.43;34.28;;;;;;;6.91;nan;100380.59;5064205;28;20056;-70
2022/12/24 09:07:43;;;;;;;62.38;33.13;;;;;;;6.92;nan;100360.44;5085369;28;20054;-72
2022/12/24 09:10:09;;;;;;;61.28;32.28;;;;;;;7.00;nan;100365.50;5083732;28;20038;-71
2022/12/24 09:12:34;;;;;;;60.92;32.05;;;;;;;7.02;nan;100374.75;5084638;28;20020;-71
2022/12/24 09:15:00;;;;;;;60.53;34.05;;;;;;;6.97;nan;100369.31;5069266;28;20054;-72
2022/12/24 09:17:25;;;;;;;61.85;31.88;;;;;;;7.04;nan;100369.31;5084694;28;20020;-71
2022/12/24 09:19:50;;;;;;;58.65;31.98;;;;;;;7.06;nan;100366.50;5090311;28;20039;-72
2022/12/24 09:22:16;;;;;;;64.22;32.28;;;;;;;7.11;nan;100353.59;5082471;28;20036;-71
2022/12/24 09:24:41;;;;;;;60.42;31.30;;;;;;;7.11;nan;100348.34;5083005;28;20044;-71
2022/12/24 09:27:07;;;;;;;53.33;29.80;;;;;;;7.08;nan;100354.00;5066551;28;20085;-70
2022/12/24 09:29:32;;;;;;;55.50;31.23;;;;;;;7.17;nan;100371.94;5084343;28;20024;-71
2022/12/24 09:31:58;;;;;;;55.40;30.88;;;;;;;7.20;nan;100368.88;5083488;28;20142;-70
2022/12/24 09:34:24;;;;;;;57.95;32.13;;;;;;;7.25;nan;100368.28;5065380;28;20089;-70
2022/12/24 09:36:53;;;;;;;52.38;29.30;;;;;;;7.27;nan;100368.88;5082543;28;20023;-71
2022/12/24 09:39:19;;;;;;;54.28;28.92;;;;;;;7.19;nan;100358.63;5085476;28;20023;-73
2022/12/24 09:42:03;;;;;;;52.88;29.73;;;;;;;7.32;nan;100384.00;5080108;28;20089;-72
2022/12/24 09:44:42;;;;;;;50.90;28.52;;;;;;;7.31;nan;100390.25;5071893;28;20412;-72
2022/12/24 09:47:20;;;;;;;57.28;30.67;;;;;;;7.35;nan;100401.91;5084217;28;20032;-72
2022/12/24 09:49:50;;;;;;;53.78;29.20;;;;;;;7.40;nan;100400.31;5080444;28;20056;-70
2022/12/24 09:52:29;;;;;;;54.55;29.67;;;;;;;7.40;nan;100402.94;5086016;28;20427;-70
2022/12/24 09:55:21;;;;;;;53.27;29.93;;;;;;;7.42;nan;100393.06;5081805;28;20111;-70
2022/12/24 09:57:50;;;;;;;56.67;30.08;;;;;;;7.41;nan;100391.44;5066840;28;20391;-73
2022/12/24 10:00:36;;;;;;;55.28;30.58;;;;;;;7.54;nan;100402.91;5081219;28;20020;-73
2022/12/24 10:03:14;;;;;;;54.42;30.52;;;;;;;7.49;nan;100393.03;5083497;28;20032;-72
2022/12/24 10:05:54;;;;;;;59.85;34.97;;;;;;;7.60;nan;100396.84;5083816;28;20169;-72
2022/12/24 10:08:44;;;;;;;47.60;27.73;;;;;;;7.63;nan;100406.91;5081939;28;20081;-69
2022/12/24 10:11:30;;;;;;;51.90;28.88;;;;;;;7.66;nan;100430.09;5081371;28;20050;-73
2022/12/24 10:14:07;;;;;;;50.05;28.95;;;;;;;7.72;nan;100425.88;5082172;28;20028;-72
2022/12/24 10:17:14;;;;;;;53.10;29.52;;;;;;;7.77;nan;100426.06;5082253;28;20112;-72
2022/12/24 10:19:58;;;;;;;49.05;28.00;;;;;;;7.80;nan;100420.38;5069862;28;20045;-73
2022/12/24 10:22:47;;;;;;;49.33;27.45;;;;;;;7.83;nan;100420.00;5082504;28;20551;-72
2022/12/24 10:25:26;;;;;;;50.97;28.45;;;;;;;7.83;nan;100433.91;5086545;28;20028;-71
2022/12/24 10:27:54;;;;;;;49.17;28.13;;;;;;;7.83;nan;100426.03;5081994;28;20038;-72
2022/12/24 10:30:21;;;;;;;45.80;26.50;;;;;;;7.83;nan;100425.25;5069354;28;20439;-71
2022/12/24 10:32:49;;;;;;;49.25;27.63;;;;;;;7.88;nan;100433.28;5083106;28;20032;-72
2022/12/24 10:35:18;;;;;;;46.75;26.17;;;;;;;7.89;nan;100430.44;5084139;28;20020;-73
2022/12/24 10:37:46;;;;;;;47.78;26.73;;;;;;;7.93;nan;100437.91;5080766;28;20028;-72
2022/12/24 10:40:31;;;;;;;48.00;26.88;;;;;;;7.94;nan;100423.78;5081386;28;20122;-73
2022/12/24 10:42:56;;;;;;;44.85;27.05;;;;;;;7.95;nan;100420.97;5079514;28;20016;-72
2022/12/24 10:45:27;;;;;;;46.95;27.17;;;;;;;7.90;nan;100415.50;5057592;28;20082;-72
2022/12/24 10:47:57;;;;;;;49.38;27.00;;;;;;;7.91;nan;100408.47;5079143;28;20024;-72
2022/12/24 10:50:38;;;;;;;49.55;28.27;;;;;;;8.03;nan;100417.31;5081916;28;20101;-72
2022/12/24 10:53:23;;;;;;;45.95;26.90;;;;;;;8.05;nan;100408.22;5062191;28;20036;-73
2022/12/24 10:55:49;;;;;;;49.90;27.20;;;;;;;8.12;nan;100404.75;5076420;28;20024;-72
2022/12/24 10:58:18;;;;;;;49.25;26.80;;;;;;;8.14;nan;100411.41;5073922;28;20084;-72
2022/12/24 11:00:51;;;;;;;46.70;27.33;;;;;;;8.20;nan;100420.25;5060851;28;20136;-73
2022/12/24 11:03:17;;;;;;;46.72;27.73;;;;;;;8.22;nan;100431.34;5074239;28;20461;-73
2022/12/24 11:05:42;;;;;;;51.93;27.93;;;;;;;8.24;nan;100427.50;5077218;28;20035;-73
2022/12/24 11:08:16;;;;;;;49.40;27.10;;;;;;;8.28;nan;100441.00;5073161;28;20276;-72
2022/12/24 11:10:44;;;;;;;47.75;27.90;;;;;;;8.32;nan;100432.50;5078268;28;20071;-71
2022/12/24 11:13:28;;;;;;;54.95;30.85;;;;;;;8.26;nan;100422.84;5079306;28;20089;-71
2022/12/24 11:16:05;;;;;;;50.22;27.58;;;;;;;8.40;nan;100433.31;5081116;28;20039;-72
2022/12/24 11:18:43;;;;;;;49.00;28.35;;;;;;;8.38;nan;100422.19;5074548;28;20107;-72
2022/12/24 11:21:09;;;;;;;47.90;26.63;;;;;;;8.32;nan;100405.47;5056885;28;20024;-71
2022/12/24 11:23:34;;;;;;;51.08;27.92;;;;;;;8.43;nan;100435.53;5082412;28;20016;-72
2022/12/24 11:26:00;;;;;;;46.90;27.13;;;;;;;8.49;nan;100439.94;5055928;28;20043;-72
2022/12/24 11:28:30;;;;;;;49.42;27.13;;;;;;;8.55;nan;100440.91;5080807;28;20048;-72
2022/12/24 11:30:56;;;;;;;45.10;27.42;;;;;;;8.58;nan;100437.88;5077244;28;20016;-72
2022/12/24 11:33:22;;;;;;;49.97;28.33;;;;;;;8.48;nan;100418.13;5079091;28;20038;-72
2022/12/24 11:35:52;;;;;;;48.40;27.27;;;;;;;8.64;nan;100440.47;5079962;28;20052;-72
2022/12/24 11:38:23;;;;;;;51.88;28.17;;;;;;;8.67;nan;100432.16;5079964;28;20073;-72
2022/12/24 11:41:02;;;;;;;49.83;27.48;;;;;;;8.78;nan;100432.50;5082054;28;20127;-72
2022/12/24 11:43:43;;;;;;;46.17;27.07;;;;;;;8.81;nan;100438.13;5079850;28;20434;-72
2022/12/24 11:46:33;;;;;;;44.42;26.60;;;;;;;8.85;nan;100434.06;5081848;28;20279;-72
2022/12/24 11:49:10;;;;;;;49.88;27.38;;;;;;;8.88;nan;100436.28;5084208;28;20099;-72